createdAt,value
2022-09-11T00:03:27.664Z,100627.53
2022-09-11T00:08:31.725Z,100600.19
2022-09-11T00:13:29.170Z,100613.25
2022-09-11T00:18:28.887Z,100698.00
2022-09-11T00:23:28.111Z,100644.97
2022-09-11T00:28:26.901Z,100645.50
2022-09-11T00:33:25.606Z,100599.00
2022-09-11T00:38:33.522Z,100623.84
2022-09-11T00:43:50.084Z,100633.91
2022-09-11T00:48:51.244Z,100720.84
2022-09-11T00:53:56.868Z,100647.66
2022-09-11T00:59:00.851Z,100646.69
2022-09-11T01:03:58.393Z,100623.66
2022-09-11T01:09:03.472Z,100695.69
2022-09-11T01:14:19.986Z,100635.94
2022-09-11T01:19:37.301Z,100714.16
2022-09-11T01:25:07.746Z,100669.84
2022-09-11T01:30:21.493Z,100690.47
2022-09-11T01:35:33.752Z,100643.00
2022-09-11T01:40:39.889Z,100621.94
2022-09-11T01:45:59.195Z,100724.38
2022-09-11T01:51:01.256Z,100622.63
2022-09-11T01:56:08.523Z,100649.28
2022-09-11T02:01:27.341Z,100720.53
2022-09-11T02:06:31.630Z,100658.47
2022-09-11T02:11:36.583Z,100628.59
2022-09-11T02:16:48.105Z,100676.41
2022-09-11T02:21:52.495Z,100615.47
2022-09-11T02:26:59.986Z,100642.84
2022-09-11T02:32:03.943Z,100618.31
2022-09-11T02:37:13.343Z,100632.91
2022-09-11T02:42:31.441Z,100643.63
2022-09-11T02:47:46.131Z,100698.22
2022-09-11T02:52:54.091Z,100719.72
2022-09-11T02:57:57.280Z,100645.25
2022-09-11T03:02:57.175Z,100622.53
2022-09-11T03:07:58.446Z,100628.56
2022-09-11T03:12:59.400Z,100634.75
2022-09-11T03:18:04.664Z,100727.00
2022-09-11T03:23:10.556Z,100617.09
2022-09-11T03:28:08.946Z,100715.22
2022-09-11T03:33:12.472Z,100687.97
2022-09-11T03:38:25.411Z,100738.72
2022-09-11T03:43:30.326Z,100740.50
2022-09-11T03:48:36.401Z,100713.91
2022-09-11T03:53:35.850Z,100677.19
2022-09-11T03:58:34.948Z,100762.59
2022-09-11T04:03:33.032Z,100677.81
2022-09-11T04:08:34.361Z,100754.84
2022-09-11T04:13:35.983Z,100674.28
2022-09-11T04:18:45.429Z,100737.19
2022-09-11T04:23:47.766Z,100671.06
2022-09-11T04:28:58.612Z,100713.97
2022-09-11T04:34:02.181Z,100733.06
2022-09-11T04:39:03.786Z,100704.28
2022-09-11T04:44:05.494Z,100653.22
2022-09-11T04:49:11.396Z,100703.03
2022-09-11T04:54:12.863Z,100673.28
2022-09-11T04:59:12.904Z,100685.22
2022-09-11T05:04:17.794Z,100736.72
2022-09-11T05:10:21.466Z,100647.06
2022-09-11T05:15:38.254Z,100771.59
2022-09-11T05:20:43.260Z,100742.75
2022-09-11T05:25:41.094Z,100707.94
2022-09-11T05:30:38.295Z,100747.28
2022-09-11T05:35:39.899Z,100753.06
2022-09-11T05:40:43.419Z,100698.19
2022-09-11T05:45:54.206Z,100748.88
2022-09-11T05:51:14.930Z,100686.53
2022-09-11T05:56:26.435Z,100763.69
2022-09-11T06:01:32.986Z,100738.72
2022-09-11T06:06:43.596Z,100707.03
2022-09-11T06:12:03.070Z,100728.34
2022-09-11T06:17:21.485Z,100747.13
2022-09-11T06:22:27.281Z,100727.00
2022-09-11T06:27:34.368Z,100673.41
2022-09-11T06:33:00.564Z,100679.72
2022-09-11T06:38:09.288Z,100703.38
2022-09-11T12:14:30.888Z,100589.16
2022-09-11T12:19:28.530Z,100581.63
2022-09-11T12:24:55.043Z,100562.38
2022-09-11T12:29:59.457Z,100573.03
2022-09-11T12:35:23.106Z,100589.38
2022-09-11T12:40:59.380Z,100601.13
2022-09-11T12:46:02.224Z,100560.00
2022-09-11T12:51:45.697Z,100539.53
2022-09-11T12:57:58.718Z,100539.28
2022-09-11T13:02:55.640Z,100566.63
2022-09-11T13:08:30.787Z,100554.16
2022-09-11T13:14:01.075Z,100585.47
2022-09-11T13:19:14.110Z,100563.34
2022-09-11T13:24:47.890Z,100499.75
2022-09-11T13:29:56.601Z,100570.56
2022-09-11T13:35:08.388Z,100567.06
2022-09-11T13:40:20.771Z,100471.53
2022-09-11T13:45:35.842Z,100499.47
2022-09-11T13:50:39.011Z,100478.03
2022-09-11T13:55:41.951Z,100501.22
2022-09-11T14:07:20.721Z,100478.72
2022-09-11T14:12:26.913Z,100478.13
2022-09-11T14:17:31.259Z,100514.13
2022-09-11T14:22:37.691Z,100516.66
2022-09-11T14:27:40.138Z,100493.41
2022-09-11T14:33:14.835Z,100449.84
2022-09-11T14:38:18.073Z,100496.03
2022-09-11T14:43:48.941Z,100445.69
2022-09-11T14:49:02.167Z,100410.06
2022-09-11T14:53:59.343Z,100406.94
2022-09-11T14:58:58.160Z,100479.34
2022-09-11T15:04:16.600Z,100449.97
2022-09-11T15:09:14.504Z,100458.50
2022-09-11T15:14:23.699Z,100416.88
2022-09-11T15:19:47.835Z,100445.81
2022-09-11T15:24:45.036Z,100447.25
2022-09-11T15:35:13.346Z,100460.22
2022-09-11T15:40:11.002Z,100418.44
2022-09-11T15:45:13.904Z,100382.44
2022-09-11T15:50:40.445Z,100419.28
2022-09-11T15:55:40.044Z,100427.03
2022-09-11T16:00:40.421Z,100432.03
2022-09-11T16:05:42.500Z,100384.13
2022-09-11T16:10:40.023Z,100422.66
2022-09-11T16:15:56.443Z,100375.81
2022-09-11T16:21:05.415Z,100399.72
2022-09-11T16:26:27.656Z,100390.13
2022-09-11T16:31:25.050Z,100420.91
2022-09-11T16:36:30.552Z,100409.00
2022-09-11T16:41:30.297Z,100407.09
2022-09-11T16:52:30.771Z,100413.09
2022-09-11T17:04:13.974Z,100393.34
2022-09-11T17:09:15.093Z,100469.38
2022-09-11T17:14:19.480Z,100500.97
2022-09-11T17:19:38.289Z,100450.41
2022-09-11T17:24:57.830Z,100447.78
2022-09-11T17:30:09.296Z,100504.78
2022-09-11T17:35:17.302Z,100438.66
2022-09-11T17:41:58.609Z,100539.25
2022-09-11T17:46:34.813Z,100522.59
2022-09-11T17:52:33.488Z,100522.09
2022-09-11T17:57:31.316Z,100527.94
2022-09-11T18:02:45.947Z,100471.69
2022-09-11T18:07:50.552Z,100519.34
2022-09-11T18:12:47.910Z,100575.00
2022-09-11T18:18:18.001Z,100493.91
2022-09-11T18:23:17.041Z,100555.50
2022-09-11T18:28:16.327Z,100546.50
2022-09-11T18:33:16.119Z,100549.41
2022-09-11T18:38:13.189Z,100530.28
2022-09-11T18:43:12.815Z,100538.16
2022-09-11T18:48:12.523Z,100558.69
2022-09-11T18:53:17.452Z,100471.72
2022-09-11T18:58:15.843Z,100488.72
2022-09-11T19:03:14.280Z,100476.06
2022-09-11T19:08:14.685Z,100507.19
2022-09-11T19:13:13.338Z,100489.34
2022-09-11T19:18:10.346Z,100537.75
2022-09-11T19:23:10.659Z,100559.03
2022-09-11T19:33:27.000Z,100546.94
2022-09-11T19:38:25.289Z,100516.28
2022-09-11T19:43:24.405Z,100554.22
2022-09-11T19:48:21.818Z,100548.53
2022-09-11T19:53:27.549Z,100508.59
2022-09-11T19:58:26.215Z,100548.06
2022-09-11T20:03:23.346Z,100490.34
2022-09-11T20:08:20.578Z,100554.84
2022-09-11T20:13:30.196Z,100578.75
2022-09-11T20:18:47.028Z,100552.34
2022-09-11T20:23:48.254Z,100603.22
2022-09-11T20:28:56.421Z,100539.53
2022-09-11T20:33:54.113Z,100602.53
2022-09-11T20:38:53.187Z,100606.88
2022-09-11T20:48:39.821Z,100544.25
2022-09-11T20:53:47.840Z,100593.78
2022-09-11T20:59:24.115Z,100551.50
2022-09-11T21:04:37.508Z,100551.69
2022-09-11T21:09:40.134Z,100514.91
2022-09-11T21:14:44.485Z,100524.94
2022-09-11T21:20:49.663Z,100565.66
2022-09-11T21:25:52.697Z,100558.69
2022-09-11T21:31:40.876Z,100607.56
2022-09-11T21:37:05.852Z,100588.88
2022-09-11T21:42:33.046Z,100598.34
2022-09-11T21:47:33.487Z,100552.13
2022-09-11T21:52:47.902Z,100544.47
2022-09-11T21:57:45.638Z,100621.38
2022-09-11T22:02:43.185Z,100586.56
2022-09-11T22:07:43.517Z,100569.94
2022-09-11T22:12:58.096Z,100568.28
2022-09-11T22:17:56.674Z,100605.91
2022-09-11T22:22:58.888Z,100620.66
2022-09-11T22:28:07.401Z,100608.84
2022-09-11T22:33:19.728Z,100633.50
2022-09-11T22:38:33.792Z,100566.47
2022-09-11T22:43:40.630Z,100595.84
2022-09-11T22:48:47.778Z,100561.97
2022-09-11T22:53:52.469Z,100589.34
2022-09-11T22:58:53.589Z,100601.25
2022-09-11T23:04:01.816Z,100554.69
2022-09-11T23:09:07.482Z,100535.91
2022-09-11T23:14:13.910Z,100545.03
2022-09-11T23:19:16.763Z,100551.44
2022-09-11T23:24:18.845Z,100575.72
2022-09-11T23:29:18.581Z,100556.00
2022-09-11T23:34:17.538Z,100581.44
2022-09-11T23:39:15.371Z,100536.19
2022-09-11T23:44:20.774Z,100601.13
2022-09-11T23:49:20.052Z,100578.31
2022-09-11T23:54:17.022Z,100582.50
2022-09-11T23:59:14.225Z,100560.56
